KELM/ELM METAR and TAF weather

Enter ICAO airport designator
Station Type Date Time Source
KELM METAR 2023/12/09 04:53 UTC NOAA

KELM 090453Z AUTO 00000KT 10SM OVC070 07/02 A3006 RMK AO2 SLP185 T00670017 401171017


Station Type Date Time Source
KELM Decoded METAR 2023/12/09 04:53 UTC NOAA

ELMIRA COUNTY AIRPORT, NY, United States (KELM) 42-10N 76-54W 302M
Dec 08, 2023 - 11:53 PM EST / 2023.12.09 0453 UTC
Wind: Calm:0
Visibility: 10 mile(s):0
Sky conditions: overcast
Temperature: 44.1 F (6.7 C)
Dew Point: 35.1 F (1.7 C)
Relative Humidity: 70%
Pressure (altimeter): 30.06 in. Hg (1017 hPa)
ob: KELM 090453Z AUTO 00000KT 10SM OVC070 07/02 A3006 RMK AO2 SLP185 T00670017 401171017
cycle: 5

Station Type Date Time Source
KELM TAF 2023/12/09 06:22 UTC NOAA

TAF KELM 090520Z 0906/1006 VRB03KT P6SM OVC070
FM091700 17006KT P6SM OVC080

Example: see airport list